Time;durP1;ratioP1;P1;durP2;ratioP2;P2;SDS_P1;SDS_P2;PMS_P1;PMS_P2;Temp;Humidity;BMP_temperature;BMP_pressure;BME280_temperature;BME280_humidity;BME280_pressure;Samples;Min_cycle;Max_cycle;Signal;HPM_P1;HPM_P2
2022/03/08 00:00:27;;;;;;;26.13;16.15;;;0.80;82.70;;;;;;6205056;23;20009;-78
2022/03/08 00:02:54;;;;;;;28.63;17.42;;;0.90;82.80;;;;;;6203713;23;20007;-76
2022/03/08 00:05:22;;;;;;;22.75;14.02;;;1.00;82.50;;;;;;6205472;23;20015;-76
2022/03/08 00:07:47;;;;;;;22.63;14.70;;;1.10;82.20;;;;;;6205328;23;20017;-76
2022/03/08 00:10:14;;;;;;;18.80;12.48;;;1.10;83.30;;;;;;6206423;23;20333;-78
2022/03/08 00:12:40;;;;;;;26.08;14.80;;;1.10;83.30;;;;;;6205119;23;20007;-77
2022/03/08 00:15:12;;;;;;;25.42;16.42;;;1.20;83.80;;;;;;6204995;23;20008;-78
2022/03/08 00:17:38;;;;;;;25.40;15.35;;;1.20;83.40;;;;;;6206160;23;20419;-77
2022/03/08 00:20:08;;;;;;;20.40;12.15;;;1.20;85.10;;;;;;6205147;23;20009;-76
2022/03/08 00:22:37;;;;;;;17.67;9.95;;;1.20;84.10;;;;;;6203775;23;20004;-76
2022/03/08 00:25:04;;;;;;;23.88;13.75;;;1.30;83.80;;;;;;6203362;23;20070;-76
2022/03/08 00:27:30;;;;;;;16.48;9.68;;;1.30;84.90;;;;;;6202659;23;20175;-76
2022/03/08 00:29:57;;;;;;;20.92;12.77;;;1.30;85.00;;;;;;6201975;23;20797;-76
2022/03/08 00:32:23;;;;;;;12.13;8.80;;;1.30;85.10;;;;;;6204512;23;20129;-76
2022/03/08 00:34:48;;;;;;;10.65;7.18;;;1.40;85.50;;;;;;6203830;23;20110;-76
2022/03/08 00:37:14;;;;;;;7.80;5.43;;;1.40;84.60;;;;;;6176941;23;20008;-76
2022/03/08 00:39:40;;;;;;;9.15;6.25;;;1.60;83.50;;;;;;6202955;23;20025;-76
2022/03/08 00:42:11;;;;;;;7.53;5.70;;;1.70;83.60;;;;;;6203522;23;20032;-77
2022/03/08 00:44:38;;;;;;;15.85;9.52;;;1.80;83.70;;;;;;6203976;23;20009;-76
2022/03/08 00:47:04;;;;;;;9.65;6.88;;;1.80;82.90;;;;;;6202417;23;20434;-76
2022/03/08 00:49:30;;;;;;;11.77;6.90;;;1.80;83.40;;;;;;6203913;23;20132;-76
2022/03/08 00:51:55;;;;;;;8.52;6.45;;;1.80;83.60;;;;;;6202571;23;20310;-76
2022/03/08 00:54:21;;;;;;;12.27;7.05;;;1.90;82.80;;;;;;6203962;23;20012;-76
2022/03/08 00:56:47;;;;;;;14.05;7.93;;;1.90;82.00;;;;;;6203370;23;20012;-76
2022/03/08 00:59:12;;;;;;;9.18;6.78;;;2.00;81.20;;;;;;6204135;23;20328;-76
2022/03/08 01:01:38;;;;;;;8.40;5.90;;;2.10;80.90;;;;;;6174157;23;20000;-76
2022/03/08 01:04:04;;;;;;;9.40;5.53;;;2.10;80.30;;;;;;6204181;23;20031;-76
2022/03/08 01:06:29;;;;;;;8.73;5.97;;;2.30;79.80;;;;;;6203819;23;20015;-77
2022/03/08 01:08:55;;;;;;;9.18;5.90;;;2.40;78.60;;;;;;6202092;23;20078;-76
2022/03/08 01:11:21;;;;;;;6.30;4.95;;;2.40;77.90;;;;;;6203358;23;20584;-76
2022/03/08 01:13:46;;;;;;;8.20;5.68;;;2.40;77.70;;;;;;6204074;23;20013;-76
2022/03/08 01:16:12;;;;;;;7.82;5.47;;;2.40;77.20;;;;;;6202533;23;20001;-76
2022/03/08 01:18:38;;;;;;;9.07;5.82;;;2.30;77.40;;;;;;6202269;23;20553;-76
2022/03/08 01:21:04;;;;;;;11.38;5.22;;;2.30;77.10;;;;;;6203402;23;20028;-76
2022/03/08 01:23:29;;;;;;;8.98;5.55;;;2.40;76.40;;;;;;6202114;23;20436;-76
2022/03/08 01:25:55;;;;;;;8.40;5.50;;;2.50;76.40;;;;;;6174905;23;20031;-75
2022/03/08 01:28:21;;;;;;;6.80;5.05;;;2.50;76.40;;;;;;6203173;23;20025;-72
2022/03/08 01:30:47;;;;;;;8.88;5.32;;;2.50;76.90;;;;;;6176204;23;20005;-71
2022/03/08 01:33:13;;;;;;;7.78;5.43;;;2.40;76.70;;;;;;6200024;23;20012;-72
2022/03/08 01:35:38;;;;;;;8.80;5.25;;;2.50;76.70;;;;;;6202931;23;20066;-72
2022/03/08 01:38:04;;;;;;;8.35;5.50;;;2.50;76.60;;;;;;6203780;23;20019;-71
2022/03/08 01:40:30;;;;;;;9.48;6.35;;;2.40;77.00;;;;;;6203388;23;20021;-71
2022/03/08 01:42:56;;;;;;;11.98;5.93;;;2.30;76.80;;;;;;6174264;23;20031;-72
2022/03/08 01:45:24;;;;;;;8.00;5.88;;;2.30;77.20;;;;;;6202584;23;20126;-71
2022/03/08 01:47:50;;;;;;;7.60;5.45;;;2.20;78.30;;;;;;6199493;23;20012;-72
2022/03/08 01:50:17;;;;;;;8.88;5.70;;;2.10;78.00;;;;;;6204282;23;20017;-72
2022/03/08 01:52:43;;;;;;;7.10;5.25;;;1.90;78.10;;;;;;6202409;23;20055;-71
2022/03/08 01:55:11;;;;;;;7.95;5.68;;;1.80;78.70;;;;;;6202258;23;20305;-72
2022/03/08 01:57:37;;;;;;;9.18;5.80;;;1.80;79.00;;;;;;6201644;23;20417;-71
2022/03/08 02:00:10;;;;;;;9.48;6.35;;;1.70;79.40;;;;;;6174952;23;20115;-72
2022/03/08 02:02:35;;;;;;;10.95;7.38;;;1.60;79.30;;;;;;6202826;23;20099;-72
2022/03/08 02:05:01;;;;;;;12.00;7.47;;;1.60;79.60;;;;;;6201495;23;20521;-72
2022/03/08 02:07:27;;;;;;;12.40;6.90;;;1.70;79.00;;;;;;6201829;23;20009;-72
2022/03/08 02:09:52;;;;;;;11.07;6.93;;;1.80;78.70;;;;;;6202814;23;20493;-71
2022/03/08 02:12:18;;;;;;;11.20;7.10;;;1.80;79.10;;;;;;6201928;23;20501;-72
2022/03/08 02:14:44;;;;;;;10.93;7.70;;;1.50;78.20;;;;;;6201016;23;20013;-71
2022/03/08 02:17:10;;;;;;;10.40;7.32;;;1.40;79.50;;;;;;6202039;23;20291;-71
2022/03/08 02:19:36;;;;;;;10.40;7.05;;;1.30;79.60;;;;;;6204100;23;20016;-71
2022/03/08 02:22:02;;;;;;;10.48;7.65;;;1.10;80.30;;;;;;6202203;23;20005;-72
2022/03/08 02:24:27;;;;;;;12.02;7.40;;;1.00;81.10;;;;;;6203928;23;20008;-72
2022/03/08 02:26:54;;;;;;;9.63;6.68;;;1.10;81.10;;;;;;6202048;23;20058;-72
2022/03/08 02:29:19;;;;;;;9.30;6.88;;;1.20;80.50;;;;;;6201186;23;20017;-71
2022/03/08 02:31:47;;;;;;;14.65;8.77;;;1.20;80.30;;;;;;6203174;23;20063;-71
2022/03/08 02:34:14;;;;;;;11.32;7.60;;;1.00;80.30;;;;;;6203258;23;20013;-71
2022/03/08 02:36:41;;;;;;;11.63;7.30;;;0.80;81.30;;;;;;6203577;23;20000;-72
2022/03/08 02:39:07;;;;;;;12.80;8.68;;;0.70;81.80;;;;;;6202310;23;20087;-71
2022/03/08 02:41:33;;;;;;;12.85;9.05;;;0.50;81.30;;;;;;6176664;23;20024;-71
2022/03/08 02:43:58;;;;;;;12.40;8.50;;;0.30;82.80;;;;;;6203923;23;20337;-71
2022/03/08 02:46:24;;;;;;;11.73;8.27;;;0.10;82.30;;;;;;6201041;23;20001;-72
2022/03/08 02:48:50;;;;;;;12.10;8.93;;;-0.10;82.60;;;;;;6202948;23;20009;-71
2022/03/08 02:51:17;;;;;;;13.27;9.20;;;-0.30;84.00;;;;;;6203688;23;20136;-71
2022/03/08 02:53:43;;;;;;;10.93;7.80;;;-0.40;85.10;;;;;;6175213;23;20480;-71
2022/03/08 02:56:09;;;;;;;13.80;8.98;;;-0.40;85.10;;;;;;6201683;23;20305;-71
2022/03/08 02:58:35;;;;;;;16.35;8.73;;;-0.50;85.30;;;;;;6204976;23;20009;-71
2022/03/08 03:01:00;;;;;;;14.98;10.10;;;-0.30;84.90;;;;;;6199283;23;20004;-72
2022/03/08 03:03:26;;;;;;;17.17;11.05;;;0.00;84.50;;;;;;6203836;23;20020;-72
2022/03/08 03:05:52;;;;;;;15.82;9.90;;;0.00;83.90;;;;;;6203617;23;20053;-71
2022/03/08 03:08:17;;;;;;;15.65;9.60;;;0.10;83.90;;;;;;6204174;23;20013;-71
2022/03/08 03:10:43;;;;;;;12.65;8.68;;;0.00;84.90;;;;;;6201926;23;20076;-72
2022/03/08 03:13:09;;;;;;;11.50;7.20;;;-0.20;83.70;;;;;;6202598;23;20012;-72
2022/03/08 03:15:34;;;;;;;10.95;8.00;;;-0.50;83.80;;;;;;6203012;23;20005;-72
2022/03/08 03:18:00;;;;;;;12.65;8.25;;;-0.70;85.20;;;;;;6202424;23;20008;-71
2022/03/08 03:20:27;;;;;;;13.23;8.48;;;-0.90;87.40;;;;;;6201584;23;20008;-72
2022/03/08 03:22:53;;;;;;;10.80;8.18;;;-0.90;87.20;;;;;;6203294;23;20149;-72
2022/03/08 03:25:19;;;;;;;12.05;8.20;;;-1.00;87.10;;;;;;6202650;23;20001;-72
2022/03/08 03:27:45;;;;;;;15.25;8.45;;;-1.00;86.60;;;;;;6202147;23;20007;-72
2022/03/08 03:30:13;;;;;;;10.20;7.50;;;-1.20;86.60;;;;;;6202971;23;20004;-73
2022/03/08 03:32:39;;;;;;;13.75;8.20;;;-1.40;87.80;;;;;;6202587;23;20055;-72
2022/03/08 03:35:07;;;;;;;12.23;8.13;;;-1.50;88.00;;;;;;6203498;23;20005;-71
2022/03/08 03:37:33;;;;;;;16.38;8.80;;;-1.60;88.90;;;;;;6202805;23;20016;-72
2022/03/08 03:39:59;;;;;;;13.80;8.95;;;-1.60;89.50;;;;;;6202954;23;20217;-72
2022/03/08 03:42:25;;;;;;;14.90;9.23;;;-1.50;89.50;;;;;;6201480;23;20095;-71
2022/03/08 03:44:50;;;;;;;12.82;8.55;;;-1.40;89.40;;;;;;6203602;23;20009;-72
2022/03/08 03:47:16;;;;;;;19.02;11.35;;;-1.40;87.90;;;;;;6200662;23;20017;-71
2022/03/08 03:49:42;;;;;;;16.55;10.70;;;-1.30;88.90;;;;;;6201556;23;20055;-72
2022/03/08 03:52:07;;;;;;;16.63;10.85;;;-1.10;89.00;;;;;;6202389;23;20063;-72
2022/03/08 03:54:33;;;;;;;23.42;14.15;;;-1.00;89.50;;;;;;6204441;23;20005;-71
2022/03/08 03:56:59;;;;;;;20.90;11.65;;;-0.90;88.80;;;;;;6202041;23;20790;-72
2022/03/08 03:59:24;;;;;;;11.80;8.38;;;-1.00;88.30;;;;;;6204338;23;20008;-72
2022/03/08 04:01:50;;;;;;;11.98;7.28;;;-0.70;89.10;;;;;;6204423;23;20028;-72
2022/03/08 04:04:16;;;;;;;12.45;7.80;;;-0.50;88.20;;;;;;6203714;23;20023;-72
2022/03/08 04:06:42;;;;;;;12.68;7.93;;;-0.30;87.40;;;;;;6205035;23;20338;-72
2022/03/08 04:09:08;;;;;;;11.70;7.93;;;-0.50;86.90;;;;;;6203721;23;20047;-72
2022/03/08 04:11:33;;;;;;;12.07;7.60;;;-0.60;86.80;;;;;;6205367;23;20564;-71
2022/03/08 04:13:59;;;;;;;15.23;8.55;;;-0.60;88.10;;;;;;6203078;23;20429;-72
2022/03/08 04:16:25;;;;;;;11.00;8.13;;;-0.60;88.10;;;;;;6205739;23;20011;-72
2022/03/08 04:18:51;;;;;;;16.63;9.45;;;-0.60;88.20;;;;;;6203898;23;20016;-72
2022/03/08 04:21:17;;;;;;;13.63;9.00;;;-0.70;86.90;;;;;;6203438;23;20005;-71
2022/03/08 04:23:42;;;;;;;21.17;11.70;;;-0.90;87.90;;;;;;6204933;23;20016;-71
2022/03/08 04:26:08;;;;;;;14.63;9.55;;;-1.00;88.40;;;;;;6205387;23;20000;-71
2022/03/08 04:28:34;;;;;;;14.27;9.30;;;-1.20;89.40;;;;;;6204370;23;20021;-71
2022/03/08 04:30:59;;;;;;;11.50;7.90;;;-1.30;89.10;;;;;;6202314;23;20032;-71
2022/03/08 04:33:25;;;;;;;13.52;7.95;;;-1.40;89.30;;;;;;6203541;23;20529;-71
2022/03/08 04:35:51;;;;;;;12.00;7.93;;;-1.50;89.40;;;;;;6204680;23;20020;-71
2022/03/08 04:38:17;;;;;;;13.23;7.97;;;-1.70;90.20;;;;;;6203537;23;20079;-71
2022/03/08 04:40:43;;;;;;;13.10;8.55;;;-1.80;90.20;;;;;;6203406;23;20414;-71
2022/03/08 04:43:08;;;;;;;12.00;7.93;;;-1.80;90.30;;;;;;6204424;23;20415;-71
2022/03/08 04:45:34;;;;;;;13.10;8.13;;;-1.90;90.40;;;;;;6204247;23;20458;-71
2022/03/08 04:48:00;;;;;;;12.35;8.45;;;-1.80;90.70;;;;;;6204224;23;20013;-71
2022/03/08 04:50:26;;;;;;;13.00;7.97;;;-1.90;90.70;;;;;;6204365;23;20505;-70
2022/03/08 04:52:51;;;;;;;12.65;8.20;;;-1.90;90.70;;;;;;6205151;23;20047;-71
2022/03/08 04:55:18;;;;;;;17.40;9.90;;;-1.90;90.90;;;;;;6202622;23;20032;-71
2022/03/08 04:57:45;;;;;;;21.95;13.07;;;-1.70;90.80;;;;;;6204778;23;20008;-71
2022/03/08 05:00:12;;;;;;;21.45;12.38;;;-1.80;90.70;;;;;;6202936;23;20005;-71
2022/03/08 05:02:43;;;;;;;14.80;8.98;;;-1.90;90.80;;;;;;6201558;23;20087;-70
2022/03/08 05:05:11;;;;;;;14.82;10.00;;;-2.30;91.00;;;;;;6204309;23;20009;-71
2022/03/08 05:07:38;;;;;;;15.00;9.73;;;-2.50;91.60;;;;;;6204766;23;20009;-71
2022/03/08 05:10:05;;;;;;;14.73;9.85;;;-2.60;92.00;;;;;;6202890;23;20082;-71
2022/03/08 05:12:30;;;;;;;18.02;10.65;;;-2.70;92.40;;;;;;6205002;23;20005;-71
2022/03/08 05:14:57;;;;;;;19.80;11.38;;;-2.50;92.80;;;;;;6204858;23;20386;-71
2022/03/08 05:17:23;;;;;;;16.63;10.52;;;-2.50;92.70;;;;;;6202750;23;20933;-72
2022/03/08 05:19:48;;;;;;;17.55;10.93;;;-2.60;92.80;;;;;;6205548;23;20005;-73
2022/03/08 05:22:14;;;;;;;17.02;11.25;;;-2.60;92.90;;;;;;6176738;23;20496;-72
2022/03/08 05:24:40;;;;;;;18.23;11.15;;;-2.30;92.90;;;;;;6195584;23;20009;-71
2022/03/08 05:27:07;;;;;;;19.73;12.27;;;-2.00;92.60;;;;;;6199930;23;20079;-72
2022/03/08 05:29:33;;;;;;;19.67;12.32;;;-1.70;91.70;;;;;;6202114;23;20035;-72
2022/03/08 05:31:58;;;;;;;24.42;14.35;;;-1.80;91.10;;;;;;6201925;23;20431;-72
2022/03/08 05:34:24;;;;;;;43.85;24.63;;;-2.00;91.90;;;;;;6202034;23;20545;-72
2022/03/08 05:36:50;;;;;;;45.83;25.10;;;-2.00;91.80;;;;;;6200234;23;20013;-71
2022/03/08 05:39:16;;;;;;;45.00;24.60;;;-2.10;92.10;;;;;;6201304;23;20088;-71
2022/03/08 05:41:41;;;;;;;32.28;19.58;;;-2.10;91.60;;;;;;6202628;23;20100;-71
2022/03/08 05:44:07;;;;;;;20.85;13.13;;;-2.30;91.90;;;;;;6201758;23;20384;-72
2022/03/08 05:46:33;;;;;;;30.42;18.50;;;-2.30;92.10;;;;;;6173264;23;20804;-72
2022/03/08 05:48:58;;;;;;;23.95;14.25;;;-2.30;92.30;;;;;;6201900;23;20397;-72
2022/03/08 05:51:24;;;;;;;24.85;14.10;;;-2.20;92.20;;;;;;6203009;23;20099;-72
2022/03/08 05:53:49;;;;;;;20.40;12.98;;;-2.10;92.50;;;;;;6201547;23;20078;-71
2022/03/08 05:56:15;;;;;;;25.50;15.32;;;-2.00;92.40;;;;;;6202092;23;20028;-72
2022/03/08 05:58:41;;;;;;;23.13;14.45;;;-2.00;91.90;;;;;;6199996;23;20016;-72
2022/03/08 06:01:07;;;;;;;25.88;15.32;;;-2.00;92.00;;;;;;6200561;23;20009;-73
2022/03/08 06:03:32;;;;;;;29.70;18.13;;;-1.90;92.30;;;;;;6201160;23;20028;-72
2022/03/08 06:05:58;;;;;;;34.03;20.33;;;-1.60;92.00;;;;;;6203238;23;20028;-72
2022/03/08 06:08:24;;;;;;;26.30;17.67;;;-1.40;91.60;;;;;;6201856;23;20930;-75
2022/03/08 06:10:49;;;;;;;35.47;22.30;;;-1.30;91.20;;;;;;6202437;23;20342;-75
2022/03/08 06:13:15;;;;;;;36.03;23.05;;;-1.00;91.60;;;;;;6203038;23;20015;-75
2022/03/08 06:15:41;;;;;;;42.63;28.88;;;-1.00;90.70;;;;;;6202411;23;20016;-74
2022/03/08 06:18:07;;;;;;;92.78;19.67;;;-0.80;90.90;;;;;;6202510;23;20010;-70
2022/03/08 06:20:32;;;;;;;24.88;15.55;;;-0.60;90.40;;;;;;6202139;23;20008;-68
2022/03/08 06:22:58;;;;;;;23.33;13.93;;;-0.50;90.90;;;;;;6203142;23;20334;-69
2022/03/08 06:25:24;;;;;;;31.73;18.42;;;-0.10;90.70;;;;;;6204108;23;20044;-69
2022/03/08 06:27:49;;;;;;;20.77;12.32;;;0.30;89.90;;;;;;6201128;23;20040;-70
2022/03/08 06:30:15;;;;;;;20.13;13.32;;;0.50;88.70;;;;;;6202337;23;20702;-68
2022/03/08 06:32:41;;;;;;;20.38;12.18;;;0.40;88.90;;;;;;6204149;23;20315;-75
2022/03/08 06:35:07;;;;;;;19.08;11.60;;;0.40;89.60;;;;;;6201344;23;20071;-70
2022/03/08 06:37:33;;;;;;;23.02;12.00;;;0.40;90.00;;;;;;6202244;23;20508;-70
2022/03/08 06:39:58;;;;;;;19.33;11.32;;;0.60;90.10;;;;;;6202525;23;20027;-70
2022/03/08 06:42:24;;;;;;;21.00;14.10;;;0.70;90.50;;;;;;6203990;23;20016;-69
2022/03/08 06:44:50;;;;;;;20.98;13.55;;;0.70;90.50;;;;;;6203132;23;20005;-70
2022/03/08 06:47:15;;;;;;;25.48;15.13;;;0.70;90.40;;;;;;6202679;23;20015;-70
2022/03/08 06:49:42;;;;;;;20.90;12.98;;;1.00;89.80;;;;;;6204454;23;20024;-70
2022/03/08 06:52:08;;;;;;;20.38;13.98;;;1.20;88.00;;;;;;6204013;23;19997;-70
2022/03/08 06:54:37;;;;;;;15.43;10.80;;;1.30;88.60;;;;;;6202715;23;20088;-69
2022/03/08 06:57:03;;;;;;;14.00;10.18;;;1.40;87.00;;;;;;6204770;23;20051;-69
2022/03/08 06:59:30;;;;;;;17.50;12.25;;;1.60;86.00;;;;;;6201230;23;20008;-69
2022/03/08 07:01:56;;;;;;;17.88;12.18;;;1.70;86.00;;;;;;6202896;23;20007;-69
2022/03/08 07:04:22;;;;;;;23.33;13.85;;;1.80;86.60;;;;;;6203009;23;20055;-69
2022/03/08 07:06:48;;;;;;;24.40;16.42;;;1.90;86.90;;;;;;6205354;23;20114;-70
2022/03/08 07:09:14;;;;;;;25.95;18.48;;;2.00;86.50;;;;;;6203303;23;20442;-70
2022/03/08 07:11:40;;;;;;;28.63;16.88;;;2.20;86.40;;;;;;6203192;23;20000;-70
2022/03/08 07:14:06;;;;;;;23.95;15.93;;;2.30;85.40;;;;;;6204125;23;20009;-69
2022/03/08 07:16:32;;;;;;;24.02;16.25;;;2.40;85.70;;;;;;6202016;23;20004;-70
2022/03/08 07:18:58;;;;;;;22.55;15.02;;;2.60;85.80;;;;;;6201929;23;20036;-70
2022/03/08 07:21:24;;;;;;;16.27;12.27;;;2.70;86.40;;;;;;6203204;23;20004;-70
2022/03/08 07:23:49;;;;;;;15.88;10.25;;;2.90;86.20;;;;;;6202772;23;20012;-70
2022/03/08 07:26:15;;;;;;;15.50;10.82;;;3.20;86.20;;;;;;6203544;23;20015;-70
2022/03/08 07:28:41;;;;;;;14.68;10.48;;;3.50;85.10;;;;;;6203043;23;20021;-70
2022/03/08 07:31:07;;;;;;;16.30;11.90;;;3.80;84.70;;;;;;6201286;23;20543;-71
2022/03/08 07:33:32;;;;;;;16.25;11.18;;;4.20;84.10;;;;;;6178067;23;20558;-70
2022/03/08 07:35:58;;;;;;;15.85;11.23;;;4.40;83.40;;;;;;6205493;23;20012;-71
2022/03/08 07:38:24;;;;;;;12.82;10.88;;;4.70;83.00;;;;;;6205488;23;20004;-71
2022/03/08 07:40:50;;;;;;;16.13;11.35;;;4.80;80.10;;;;;;6204595;23;20090;-71
2022/03/08 07:43:15;;;;;;;14.43;10.15;;;4.90;81.60;;;;;;6204061;23;20418;-71
2022/03/08 07:45:41;;;;;;;14.38;9.80;;;5.10;79.80;;;;;;6204224;23;20394;-71
2022/03/08 07:48:07;;;;;;;13.10;9.25;;;5.30;79.60;;;;;;6177678;23;20262;-71
2022/03/08 07:50:35;;;;;;;11.00;9.20;;;5.50;78.30;;;;;;6204111;23;20011;-71
2022/03/08 07:53:01;;;;;;;13.68;10.00;;;5.70;76.00;;;;;;6205207;23;20008;-71
2022/03/08 07:55:29;;;;;;;12.43;8.45;;;5.80;75.50;;;;;;6203872;23;20016;-72
2022/03/08 07:57:55;;;;;;;13.05;8.60;;;5.90;74.90;;;;;;6205821;23;20016;-71
2022/03/08 08:00:21;;;;;;;10.88;7.75;;;6.00;73.00;;;;;;6203229;23;20072;-71
2022/03/08 08:02:47;;;;;;;10.60;7.35;;;6.10;71.10;;;;;;6200673;23;20338;-71
2022/03/08 08:05:12;;;;;;;9.82;7.43;;;6.10;69.00;;;;;;6203210;23;20054;-71
2022/03/08 08:07:38;;;;;;;11.18;7.78;;;6.10;70.80;;;;;;6176572;23;20126;-71
2022/03/08 08:10:04;;;;;;;10.88;7.68;;;6.30;68.80;;;;;;6204149;23;20394;-71
2022/03/08 08:12:30;;;;;;;10.32;7.90;;;6.40;69.10;;;;;;6202713;23;20008;-71
2022/03/08 08:14:55;;;;;;;10.68;8.50;;;6.60;68.50;;;;;;6204957;23;20742;-71
2022/03/08 08:17:21;;;;;;;14.38;9.63;;;6.70;67.20;;;;;;6202778;23;20036;-72
2022/03/08 08:19:47;;;;;;;13.57;9.30;;;6.80;66.50;;;;;;6204782;23;20004;-71
2022/03/08 08:22:13;;;;;;;18.15;9.13;;;6.90;65.80;;;;;;6202739;23;20020;-71
2022/03/08 08:24:39;;;;;;;10.15;8.10;;;7.10;64.80;;;;;;6204280;23;20045;-71
2022/03/08 08:27:04;;;;;;;10.20;7.05;;;7.10;64.20;;;;;;6204092;23;20004;-71
2022/03/08 08:29:30;;;;;;;12.00;8.85;;;7.00;62.70;;;;;;6206158;23;20016;-71
2022/03/08 08:31:56;;;;;;;10.63;8.30;;;6.90;63.90;;;;;;6204224;23;20292;-71
2022/03/08 08:34:21;;;;;;;8.80;7.45;;;7.00;64.70;;;;;;6204472;23;20039;-72
2022/03/08 08:36:47;;;;;;;12.88;7.80;;;7.00;64.30;;;;;;6204001;23;20009;-71
2022/03/08 08:39:17;;;;;;;10.65;8.05;;;7.10;64.50;;;;;;6203054;23;20008;-71
2022/03/08 08:41:44;;;;;;;10.95;7.75;;;7.40;63.00;;;;;;6205542;23;20486;-71
2022/03/08 08:44:10;;;;;;;11.77;8.52;;;7.40;61.50;;;;;;6203413;23;20012;-71
2022/03/08 08:46:36;;;;;;;12.93;8.10;;;7.20;61.80;;;;;;6203367;23;20007;-71
2022/03/08 08:49:03;;;;;;;9.63;7.70;;;7.10;61.90;;;;;;6200793;23;20017;-71
2022/03/08 08:51:29;;;;;;;13.13;9.13;;;7.00;62.50;;;;;;6201192;23;20009;-71
2022/03/08 08:53:55;;;;;;;11.88;7.72;;;7.10;62.00;;;;;;6201665;23;20430;-71
2022/03/08 08:56:21;;;;;;;8.70;6.68;;;7.20;62.30;;;;;;6202546;23;20075;-71
2022/03/08 08:58:47;;;;;;;10.68;8.00;;;7.40;61.30;;;;;;6202492;23;20702;-71
2022/03/08 09:01:13;;;;;;;10.00;7.15;;;7.40;61.40;;;;;;6203355;23;20001;-70
2022/03/08 09:03:39;;;;;;;10.75;7.22;;;7.50;61.00;;;;;;6203725;23;20059;-70
2022/03/08 09:06:04;;;;;;;10.10;7.05;;;7.50;60.10;;;;;;6204453;23;20001;-71
2022/03/08 09:08:30;;;;;;;9.13;6.38;;;7.50;60.50;;;;;;6204412;23;20410;-71
2022/03/08 09:10:56;;;;;;;9.45;7.10;;;7.70;60.50;;;;;;6203045;23;20373;-71
2022/03/08 09:13:22;;;;;;;11.10;7.10;;;7.90;59.30;;;;;;6204088;23;20009;-71
2022/03/08 09:15:48;;;;;;;8.88;7.38;;;8.10;59.30;;;;;;6203037;23;20000;-71
2022/03/08 09:18:15;;;;;;;8.70;6.25;;;8.10;58.20;;;;;;6203945;23;20011;-71
2022/03/08 09:20:41;;;;;;;11.30;7.13;;;8.10;58.30;;;;;;6204075;23;20012;-71
2022/03/08 09:23:07;;;;;;;8.65;6.45;;;8.10;58.10;;;;;;6202562;23;20019;-71
2022/03/08 09:25:33;;;;;;;8.85;6.70;;;8.20;57.90;;;;;;6202774;23;20032;-71
2022/03/08 09:28:01;;;;;;;7.93;6.28;;;8.20;57.60;;;;;;6202536;23;20418;-71
2022/03/08 09:30:27;;;;;;;9.38;6.00;;;8.30;56.80;;;;;;6202801;23;20016;-71
2022/03/08 09:32:56;;;;;;;10.48;5.95;;;8.30;56.50;;;;;;6201887;23;20025;-71
2022/03/08 09:35:22;;;;;;;7.10;5.20;;;8.40;56.50;;;;;;6204817;23;20529;-72
2022/03/08 09:37:47;;;;;;;7.57;5.88;;;8.50;56.80;;;;;;6202571;23;20080;-71
2022/03/08 09:40:13;;;;;;;9.52;6.60;;;8.70;55.50;;;;;;6202424;23;20055;-71
2022/03/08 09:42:39;;;;;;;7.43;5.50;;;8.90;55.60;;;;;;6203367;23;20011;-70
2022/03/08 09:45:05;;;;;;;7.15;5.75;;;9.00;53.40;;;;;;6201618;23;20012;-71
2022/03/08 09:47:31;;;;;;;12.02;5.80;;;8.90;54.00;;;;;;6202185;23;20036;-71
2022/03/08 09:49:56;;;;;;;8.52;5.28;;;8.70;55.10;;;;;;6203901;23;20059;-71
2022/03/08 09:52:23;;;;;;;7.47;5.70;;;8.90;54.30;;;;;;6203835;23;20004;-71
2022/03/08 09:54:49;;;;;;;12.55;6.35;;;9.00;53.70;;;;;;6201915;23;20008;-71
2022/03/08 09:57:18;;;;;;;9.57;5.97;;;8.90;53.80;;;;;;6203122;23;20078;-71
2022/03/08 09:59:44;;;;;;;7.05;4.85;;;8.90;54.10;;;;;;6206128;23;20309;-71
2022/03/08 10:02:14;;;;;;;10.25;5.03;;;9.00;52.80;;;;;;6202817;23;20757;-72
2022/03/08 10:04:40;;;;;;;6.38;5.05;;;8.90;52.00;;;;;;6202869;23;19997;-71
2022/03/08 10:07:11;;;;;;;14.35;5.75;;;9.00;52.40;;;;;;6201571;23;20024;-72
2022/03/08 10:09:37;;;;;;;8.20;5.90;;;9.10;51.30;;;;;;6202649;23;20021;-71
2022/03/08 10:12:15;;;;;;;7.30;4.60;;;9.30;50.90;;;;;;6178259;23;20005;-71
2022/03/08 10:14:41;;;;;;;9.52;5.75;;;9.40;51.90;;;;;;6200992;23;20019;-72
2022/03/08 10:17:09;;;;;;;7.50;5.05;;;9.50;51.00;;;;;;6196290;23;20038;-72
2022/03/08 10:19:48;;;;;;;6.45;4.63;;;9.50;49.20;;;;;;6201218;23;20442;-72
2022/03/08 10:22:31;;;;;;;6.70;4.63;;;9.40;49.20;;;;;;6176895;23;20442;-72
2022/03/08 10:25:16;;;;;;;5.72;4.78;;;9.40;49.40;;;;;;6202194;23;20096;-70
2022/03/08 10:28:00;;;;;;;4.85;4.30;;;9.70;49.20;;;;;;6200674;23;20032;-72
2022/03/08 10:30:48;;;;;;;5.57;4.60;;;9.70;48.50;;;;;;6201838;23;20020;-73
2022/03/08 10:33:19;;;;;;;12.23;4.43;;;9.60;48.80;;;;;;6200227;23;20036;-72
2022/03/08 10:35:48;;;;;;;5.95;4.13;;;9.70;48.50;;;;;;6201444;23;20717;-72
2022/03/08 10:38:13;;;;;;;4.85;4.00;;;9.70;47.80;;;;;;6202390;23;20008;-71
2022/03/08 10:40:40;;;;;;;4.28;3.42;;;9.80;48.40;;;;;;6203386;23;20092;-76
2022/03/08 10:43:08;;;;;;;4.10;3.40;;;9.90;47.50;;;;;;6200861;23;20456;-76
2022/03/08 10:45:36;;;;;;;18.20;4.25;;;10.10;46.20;;;;;;6202523;23;20103;-77
2022/03/08 10:48:07;;;;;;;3.60;3.10;;;10.20;44.80;;;;;;6202716;23;20008;-76
2022/03/08 10:50:35;;;;;;;5.68;3.97;;;10.20;43.80;;;;;;6202908;23;20079;-77
2022/03/08 10:53:03;;;;;;;6.40;3.70;;;10.10;45.00;;;;;;6200514;23;20013;-77
2022/03/08 10:55:34;;;;;;;5.57;4.25;;;10.10;45.30;;;;;;6200697;23;20009;-76
2022/03/08 10:58:03;;;;;;;6.03;4.45;;;10.30;45.60;;;;;;6204755;23;20008;-77
2022/03/08 11:00:33;;;;;;;4.55;3.55;;;10.40;45.90;;;;;;6202607;23;19997;-78
2022/03/08 11:03:01;;;;;;;7.35;3.85;;;10.60;45.10;;;;;;6205030;23;20004;-79
2022/03/08 11:05:30;;;;;;;4.50;3.08;;;10.10;44.70;;;;;;6203708;23;20179;-79
2022/03/08 11:07:57;;;;;;;6.50;4.07;;;9.80;45.20;;;;;;6201761;23;20026;-75
2022/03/08 11:10:24;;;;;;;6.78;4.30;;;9.70;44.80;;;;;;6203752;23;20092;-78
2022/03/08 11:12:50;;;;;;;6.95;3.67;;;9.80;45.40;;;;;;6202116;23;20012;-78
2022/03/08 11:15:18;;;;;;;5.15;3.58;;;10.00;45.60;;;;;;6175603;23;20013;-76
2022/03/08 11:17:45;;;;;;;9.82;3.90;;;9.90;44.40;;;;;;6202162;23;20004;-76
2022/03/08 11:20:13;;;;;;;6.38;4.45;;;9.90;44.20;;;;;;6203030;23;20453;-78
2022/03/08 11:22:40;;;;;;;6.95;4.85;;;9.70;44.80;;;;;;6201691;23;20098;-78
2022/03/08 11:25:10;;;;;;;6.78;4.78;;;9.60;44.80;;;;;;6201955;23;20071;-77
2022/03/08 11:27:39;;;;;;;11.90;4.63;;;9.60;45.70;;;;;;6201237;23;20217;-77
2022/03/08 11:30:06;;;;;;;6.40;4.40;;;9.70;46.20;;;;;;6201012;23;20020;-78
2022/03/08 11:32:40;;;;;;;6.70;4.60;;;9.80;46.30;;;;;;6204532;23;20005;-78
2022/03/08 11:35:14;;;;;;;4.80;4.28;;;9.80;45.60;;;;;;6201626;23;20327;-79
2022/03/08 11:37:41;;;;;;;4.30;3.65;;;9.70;45.70;;;;;;6203251;23;20000;-78
2022/03/08 11:40:13;;;;;;;5.88;4.50;;;9.70;44.90;;;;;;6200304;23;20092;-78
2022/03/08 11:42:44;;;;;;;7.72;5.72;;;9.70;45.40;;;;;;6203123;23;20009;-78
2022/03/08 11:45:17;;;;;;;7.57;5.55;;;9.80;44.70;;;;;;6199656;23;20130;-76
2022/03/08 11:47:56;;;;;;;14.00;12.07;;;9.90;45.60;;;;;;6202153;23;20005;-76
2022/03/08 11:50:51;;;;;;;9.73;4.82;;;10.20;45.40;;;;;;6202047;23;20012;-77
2022/03/08 11:53:18;;;;;;;5.18;4.13;;;10.40;44.00;;;;;;6175785;23;20029;-76
2022/03/08 11:55:44;;;;;;;6.18;4.13;;;10.50;44.00;;;;;;6204542;23;20044;-74
2022/03/08 11:58:21;;;;;;;5.28;4.20;;;10.40;43.20;;;;;;6198708;23;20056;-74
2022/03/08 12:00:51;;;;;;;4.45;3.55;;;10.30;43.20;;;;;;6200934;23;20008;-73
2022/03/08 12:03:38;;;;;;;5.53;3.92;;;10.20;43.30;;;;;;6202569;23;20012;-73
2022/03/08 12:06:12;;;;;;;4.47;3.50;;;9.80;43.40;;;;;;6202892;23;19997;-73
2022/03/08 12:08:39;;;;;;;5.85;4.25;;;9.80;44.30;;;;;;6201360;23;20476;-76
2022/03/08 12:11:29;;;;;;;7.68;4.55;;;9.80;44.00;;;;;;6201207;23;20000;-74
2022/03/08 12:14:09;;;;;;;14.98;6.55;;;10.00;43.90;;;;;;6185101;23;20005;-76
2022/03/08 12:16:39;;;;;;;6.50;4.32;;;10.10;44.40;;;;;;6202544;23;20178;-74
2022/03/08 12:19:05;;;;;;;5.97;4.13;;;10.20;43.20;;;;;;6200742;23;20001;-77
2022/03/08 12:21:52;;;;;;;5.60;3.65;;;10.10;43.70;;;;;;6202251;23;20583;-73
2022/03/08 12:24:19;;;;;;;6.53;3.75;;;10.30;43.40;;;;;;6204450;23;20090;-76
2022/03/08 12:27:02;;;;;;;4.97;4.00;;;10.40;43.30;;;;;;6202645;23;20016;-76
2022/03/08 12:29:31;;;;;;;6.50;4.28;;;10.50;42.60;;;;;;6202762;23;20012;-77
2022/03/08 12:32:01;;;;;;;6.38;4.72;;;10.50;43.00;;;;;;6203002;23;20828;-76
2022/03/08 12:34:35;;;;;;;24.52;21.50;;;10.60;42.20;;;;;;6203578;23;20530;-76
2022/03/08 12:37:16;;;;;;;8.88;4.68;;;10.70;42.60;;;;;;6203111;23;20012;-76
2022/03/08 12:40:03;;;;;;;11.73;9.43;;;10.50;42.00;;;;;;6200099;23;20008;-77
2022/03/08 12:42:31;;;;;;;7.13;5.97;;;10.40;42.70;;;;;;6205191;23;20110;-77